DLH39U LBSF-EKCH
Flight info
| Callsign | DLH39U |
|---|---|
| Flight time | 2h 29m |
| Altitude | 38000 |
| Route | OGOTA3T/27 OGOTA N133 ERDOM DCT OVDOT DCT PITOK DCT REDSI DCT BABKO DCT BABEN DCT KOLOB DCT ROE M743 TIDVU |
| Aircraft | A20N/M-SDE2E3FGHIRWXY/LB1 |
Departure
| Time | 2026-04-26 13:18 |
|---|---|
| Airport | Sofia Airport (LBSF) |
Arrival
| Time | 2026-04-26 15:47 |
|---|---|
| Airport | Copenhagen Kastrup Airport (EKCH) |
| Time | Latitude | Longitude | Altitude | Speed | Heading |
|---|---|---|---|---|---|
| 2026-04-26 13:00 | 42.69145 | 23.41268 | 1749 ft | 0 kts | 72° |
| 2026-04-26 13:03 | 42.69144 | 23.41264 | 1749 ft | 1 kts | 71° |
| 2026-04-26 13:03 | 42.69142 | 23.41254 | 1743 ft | 1 kts | 68° |
| 2026-04-26 13:04 | 42.69139 | 23.41245 | 1745 ft | 1 kts | 72° |
| 2026-04-26 13:04 | 42.69137 | 23.41236 | 1747 ft | 1 kts | 77° |
| 2026-04-26 13:04 | 42.69135 | 23.41227 | 1746 ft | 1 kts | 86° |
| 2026-04-26 13:04 | 42.69135 | 23.41217 | 1747 ft | 1 kts | 84° |
| 2026-04-26 13:05 | 42.69134 | 23.41207 | 1746 ft | 1 kts | 63° |
| 2026-04-26 13:05 | 42.69131 | 23.41199 | 1740 ft | 1 kts | 38° |
| 2026-04-26 13:05 | 42.69125 | 23.41193 | 1742 ft | 1 kts | 12° |
| 2026-04-26 13:05 | 42.69120 | 23.41191 | 1742 ft | 0 kts | 345° |
| 2026-04-26 13:10 | 42.69121 | 23.41191 | 1749 ft | 1 kts | 345° |
| 2026-04-26 13:11 | 42.69144 | 23.41182 | 1741 ft | 5 kts | 344° |
| 2026-04-26 13:11 | 42.69186 | 23.41164 | 1745 ft | 8 kts | 342° |
| 2026-04-26 13:11 | 42.69244 | 23.41156 | 1742 ft | 9 kts | 7° |
| 2026-04-26 13:11 | 42.69315 | 23.41176 | 1749 ft | 12 kts | 12° |
| 2026-04-26 13:12 | 42.69401 | 23.41201 | 1741 ft | 14 kts | 12° |
| 2026-04-26 13:12 | 42.69481 | 23.41253 | 1749 ft | 14 kts | 63° |
| 2026-04-26 13:12 | 42.69480 | 23.41389 | 1747 ft | 16 kts | 95° |
| 2026-04-26 13:12 | 42.69470 | 23.41545 | 1750 ft | 17 kts | 95° |
| 2026-04-26 13:13 | 42.69460 | 23.41720 | 1750 ft | 20 kts | 94° |
| 2026-04-26 13:13 | 42.69448 | 23.41913 | 1743 ft | 21 kts | 95° |
| 2026-04-26 13:13 | 42.69436 | 23.42121 | 1750 ft | 23 kts | 95° |
| 2026-04-26 13:13 | 42.69422 | 23.42344 | 1751 ft | 24 kts | 95° |
| 2026-04-26 13:14 | 42.69409 | 23.42579 | 1748 ft | 26 kts | 94° |
| 2026-04-26 13:14 | 42.69394 | 23.42827 | 1749 ft | 27 kts | 94° |
| 2026-04-26 13:14 | 42.69379 | 23.43086 | 1747 ft | 28 kts | 94° |
| 2026-04-26 13:14 | 42.69362 | 23.43358 | 1752 ft | 29 kts | 94° |
| 2026-04-26 13:15 | 42.69347 | 23.43630 | 1750 ft | 28 kts | 94° |
| 2026-04-26 13:15 | 42.69334 | 23.43846 | 1744 ft | 13 kts | 94° |
| 2026-04-26 13:15 | 42.69356 | 23.43935 | 1750 ft | 11 kts | 37° |
| 2026-04-26 13:15 | 42.69406 | 23.43951 | 1750 ft | 12 kts | 4° |
| 2026-04-26 13:16 | 42.69493 | 23.43950 | 1746 ft | 12 kts | 336° |
| 2026-04-26 13:16 | 42.69523 | 23.43822 | 1743 ft | 0 kts | 275° |
| 2026-04-26 13:17 | 42.69577 | 23.42937 | 1751 ft | 116 kts | 274° |
| 2026-04-26 13:17 | 42.69659 | 23.41569 | 1851 ft | 161 kts | 275° |
| 2026-04-26 13:18 | 42.69884 | 23.38456 | 3275 ft | 174 kts | 276° |
| 2026-04-26 13:18 | 42.70006 | 23.36743 | 3785 ft | 188 kts | 278° |
| 2026-04-26 13:18 | 42.71085 | 23.33236 | 4385 ft | 232 kts | 322° |
| 2026-04-26 13:19 | 42.72591 | 23.32338 | 4676 ft | 245 kts | 350° |
| 2026-04-26 13:19 | 42.74291 | 23.32569 | 4988 ft | 250 kts | 18° |
| 2026-04-26 13:19 | 42.75816 | 23.33816 | 5334 ft | 265 kts | 28° |
| 2026-04-26 13:19 | 42.77540 | 23.34652 | 5698 ft | 265 kts | 2° |
| 2026-04-26 13:20 | 42.79360 | 23.34431 | 6108 ft | 263 kts | 346° |
| 2026-04-26 13:20 | 42.81166 | 23.33908 | 6425 ft | 266 kts | 347° |
| 2026-04-26 13:20 | 42.82975 | 23.33443 | 6744 ft | 265 kts | 348° |
| 2026-04-26 13:20 | 42.84838 | 23.33038 | 7530 ft | 265 kts | 349° |
| 2026-04-26 13:21 | 42.86690 | 23.32883 | 8363 ft | 269 kts | 358° |
| 2026-04-26 13:21 | 42.88579 | 23.32874 | 9170 ft | 272 kts | 357° |
| 2026-04-26 13:21 | 42.90454 | 23.32857 | 10062 ft | 274 kts | 356° |
| 2026-04-26 13:21 | 42.92411 | 23.32836 | 10495 ft | 292 kts | 357° |
| 2026-04-26 13:22 | 42.94522 | 23.32816 | 10733 ft | 315 kts | 357° |
| 2026-04-26 13:22 | 42.96803 | 23.32801 | 11173 ft | 328 kts | 357° |
| 2026-04-26 13:22 | 42.99075 | 23.32791 | 11902 ft | 330 kts | 357° |
| 2026-04-26 13:22 | 43.01383 | 23.32783 | 12676 ft | 332 kts | 357° |
| 2026-04-26 13:23 | 43.03703 | 23.32772 | 13505 ft | 334 kts | 356° |
| 2026-04-26 13:23 | 43.06046 | 23.32760 | 14156 ft | 339 kts | 356° |
| 2026-04-26 13:23 | 43.08411 | 23.32743 | 14804 ft | 342 kts | 356° |
| 2026-04-26 13:23 | 43.10805 | 23.32718 | 15419 ft | 345 kts | 356° |
| 2026-04-26 13:24 | 43.13219 | 23.32698 | 16040 ft | 348 kts | 356° |
| 2026-04-26 13:24 | 43.15653 | 23.32684 | 16668 ft | 351 kts | 356° |
| 2026-04-26 13:24 | 43.18150 | 23.32677 | 17302 ft | 355 kts | 356° |
| 2026-04-26 13:24 | 43.20640 | 23.32668 | 17923 ft | 358 kts | 356° |
| 2026-04-26 13:25 | 43.23132 | 23.32468 | 18506 ft | 360 kts | 352° |
| 2026-04-26 13:25 | 43.25636 | 23.32155 | 19032 ft | 362 kts | 353° |
| 2026-04-26 13:25 | 43.28163 | 23.31849 | 19590 ft | 365 kts | 353° |
| 2026-04-26 13:25 | 43.30704 | 23.31542 | 20108 ft | 368 kts | 353° |
| 2026-04-26 13:26 | 43.33265 | 23.31229 | 20622 ft | 371 kts | 353° |
| 2026-04-26 13:26 | 43.35828 | 23.30910 | 21153 ft | 374 kts | 353° |
| 2026-04-26 13:26 | 43.38430 | 23.30580 | 21679 ft | 376 kts | 353° |
| 2026-04-26 13:26 | 43.41052 | 23.30250 | 22163 ft | 379 kts | 353° |
| 2026-04-26 13:27 | 43.43696 | 23.29923 | 22693 ft | 382 kts | 354° |
| 2026-04-26 13:27 | 43.46361 | 23.29593 | 23205 ft | 385 kts | 354° |
| 2026-04-26 13:27 | 43.49042 | 23.29259 | 23684 ft | 388 kts | 354° |
| 2026-04-26 13:27 | 43.51738 | 23.28871 | 24113 ft | 390 kts | 350° |
| 2026-04-26 13:28 | 43.54386 | 23.28131 | 24513 ft | 392 kts | 347° |
| 2026-04-26 13:28 | 43.57052 | 23.27311 | 24919 ft | 394 kts | 347° |
| 2026-04-26 13:28 | 43.59737 | 23.26498 | 25309 ft | 396 kts | 347° |
| 2026-04-26 13:28 | 43.62445 | 23.25685 | 25718 ft | 398 kts | 347° |
| 2026-04-26 13:29 | 43.65163 | 23.24868 | 26101 ft | 400 kts | 347° |
| 2026-04-26 13:29 | 43.66969 | 23.24325 | 26353 ft | 402 kts | 347° |
| 2026-04-26 13:29 | 43.70614 | 23.23224 | 26829 ft | 405 kts | 347° |
| 2026-04-26 13:29 | 43.73361 | 23.22394 | 27198 ft | 408 kts | 347° |
| 2026-04-26 13:30 | 43.76171 | 23.21546 | 27520 ft | 410 kts | 347° |
| 2026-04-26 13:30 | 43.78961 | 23.20705 | 27884 ft | 412 kts | 347° |
| 2026-04-26 13:30 | 43.81780 | 23.19853 | 28187 ft | 415 kts | 347° |
| 2026-04-26 13:30 | 43.84605 | 23.18997 | 28524 ft | 417 kts | 347° |
| 2026-04-26 13:31 | 43.87441 | 23.18137 | 28822 ft | 419 kts | 347° |
| 2026-04-26 13:31 | 43.90300 | 23.17267 | 29109 ft | 421 kts | 347° |
| 2026-04-26 13:31 | 43.93169 | 23.16394 | 29414 ft | 423 kts | 347° |
| 2026-04-26 13:31 | 43.96053 | 23.15515 | 29704 ft | 425 kts | 347° |
| 2026-04-26 13:32 | 43.98943 | 23.14633 | 29999 ft | 426 kts | 347° |
| 2026-04-26 13:32 | 44.01846 | 23.13747 | 30262 ft | 428 kts | 347° |
| 2026-04-26 13:32 | 44.04764 | 23.12855 | 30524 ft | 430 kts | 346° |
| 2026-04-26 13:32 | 44.07693 | 23.11959 | 30742 ft | 432 kts | 346° |
| 2026-04-26 13:33 | 44.10600 | 23.11069 | 31019 ft | 433 kts | 346° |
| 2026-04-26 13:33 | 44.13552 | 23.10164 | 31296 ft | 434 kts | 346° |
| 2026-04-26 13:33 | 44.16496 | 23.09261 | 31632 ft | 433 kts | 346° |
| 2026-04-26 13:33 | 44.19438 | 23.08357 | 31941 ft | 432 kts | 346° |
| 2026-04-26 13:34 | 44.22378 | 23.07454 | 32259 ft | 432 kts | 346° |
| 2026-04-26 13:34 | 44.25311 | 23.06551 | 32552 ft | 431 kts | 346° |
| 2026-04-26 13:34 | 44.28232 | 23.05650 | 32871 ft | 430 kts | 346° |
| 2026-04-26 13:34 | 44.30210 | 23.05040 | 33077 ft | 430 kts | 346° |
| 2026-04-26 13:35 | 44.34054 | 23.03854 | 33468 ft | 429 kts | 346° |
| 2026-04-26 13:35 | 44.36965 | 23.02954 | 33765 ft | 428 kts | 346° |
| 2026-04-26 13:35 | 44.39877 | 23.02053 | 34034 ft | 427 kts | 346° |
| 2026-04-26 13:35 | 44.42776 | 23.01155 | 34262 ft | 427 kts | 346° |
| 2026-04-26 13:36 | 44.45676 | 23.00256 | 34496 ft | 426 kts | 345° |
| 2026-04-26 13:36 | 44.48570 | 22.99358 | 34703 ft | 426 kts | 345° |
| 2026-04-26 13:36 | 44.51469 | 22.98452 | 34899 ft | 426 kts | 344° |
| 2026-04-26 13:36 | 44.54302 | 22.97283 | 35095 ft | 424 kts | 338° |
| 2026-04-26 13:37 | 44.56989 | 22.95723 | 35269 ft | 423 kts | 333° |
| 2026-04-26 13:37 | 44.59660 | 22.93989 | 35460 ft | 422 kts | 334° |
| 2026-04-26 13:37 | 44.62338 | 22.92280 | 35653 ft | 422 kts | 334° |
| 2026-04-26 13:37 | 44.65018 | 22.90575 | 35830 ft | 422 kts | 334° |
| 2026-04-26 13:38 | 44.67699 | 22.88866 | 36014 ft | 422 kts | 334° |
| 2026-04-26 13:38 | 44.70354 | 22.87170 | 36167 ft | 422 kts | 334° |
| 2026-04-26 13:38 | 44.73027 | 22.85458 | 36336 ft | 422 kts | 334° |
| 2026-04-26 13:38 | 44.75702 | 22.83742 | 36528 ft | 420 kts | 334° |
| 2026-04-26 13:39 | 44.78358 | 22.82035 | 36730 ft | 419 kts | 334° |
| 2026-04-26 13:39 | 44.80981 | 22.80347 | 36913 ft | 418 kts | 334° |
| 2026-04-26 13:39 | 44.83620 | 22.78645 | 37103 ft | 417 kts | 334° |
| 2026-04-26 13:39 | 44.86261 | 22.76942 | 37287 ft | 416 kts | 334° |
| 2026-04-26 13:40 | 44.88892 | 22.75243 | 37484 ft | 414 kts | 334° |
| 2026-04-26 13:40 | 44.91507 | 22.73553 | 37642 ft | 413 kts | 333° |
| 2026-04-26 13:40 | 44.94116 | 22.71865 | 37812 ft | 412 kts | 333° |
| 2026-04-26 13:40 | 44.96714 | 22.70182 | 37972 ft | 410 kts | 333° |
| 2026-04-26 13:41 | 44.99306 | 22.68502 | 37984 ft | 408 kts | 333° |
| 2026-04-26 13:41 | 45.04437 | 22.65170 | 37985 ft | 404 kts | 333° |
| 2026-04-26 13:42 | 45.08696 | 22.62397 | 37991 ft | 406 kts | 333° |
| 2026-04-26 13:42 | 45.14707 | 22.58479 | 37993 ft | 406 kts | 333° |
| 2026-04-26 13:43 | 45.19849 | 22.55119 | 38000 ft | 408 kts | 333° |
| 2026-04-26 13:43 | 45.25004 | 22.51744 | 38008 ft | 408 kts | 333° |
| 2026-04-26 13:44 | 45.30170 | 22.48356 | 38006 ft | 409 kts | 333° |
| 2026-04-26 13:44 | 45.35267 | 22.45006 | 38006 ft | 407 kts | 333° |
| 2026-04-26 13:45 | 45.40415 | 22.41616 | 37999 ft | 407 kts | 333° |
| 2026-04-26 13:45 | 45.45568 | 22.38214 | 38020 ft | 410 kts | 333° |
| 2026-04-26 13:46 | 45.49892 | 22.35356 | 38021 ft | 412 kts | 333° |
| 2026-04-26 13:46 | 45.55929 | 22.31358 | 38023 ft | 411 kts | 333° |
| 2026-04-26 13:47 | 45.61111 | 22.27918 | 38021 ft | 411 kts | 333° |
| 2026-04-26 13:47 | 45.65461 | 22.25025 | 38029 ft | 411 kts | 333° |
| 2026-04-26 13:48 | 45.70630 | 22.21580 | 38032 ft | 410 kts | 333° |
| 2026-04-26 13:48 | 45.75764 | 22.18152 | 38028 ft | 409 kts | 333° |
| 2026-04-26 13:49 | 45.80967 | 22.14671 | 38030 ft | 409 kts | 333° |
| 2026-04-26 13:49 | 45.86125 | 22.11212 | 38027 ft | 409 kts | 333° |
| 2026-04-26 13:50 | 45.91293 | 22.07741 | 38033 ft | 409 kts | 332° |
| 2026-04-26 13:50 | 45.96410 | 22.04295 | 38039 ft | 408 kts | 332° |
| 2026-04-26 13:51 | 46.01555 | 22.00825 | 38039 ft | 408 kts | 332° |
| 2026-04-26 13:51 | 46.06696 | 21.97349 | 38041 ft | 408 kts | 332° |
| 2026-04-26 13:52 | 46.11846 | 21.93860 | 38041 ft | 408 kts | 332° |
| 2026-04-26 13:52 | 46.17000 | 21.90362 | 38047 ft | 408 kts | 332° |
| 2026-04-26 13:53 | 46.22148 | 21.86860 | 38049 ft | 409 kts | 332° |
| 2026-04-26 13:53 | 46.27264 | 21.83371 | 38058 ft | 409 kts | 331° |
| 2026-04-26 13:54 | 46.32415 | 21.79852 | 38063 ft | 410 kts | 331° |
| 2026-04-26 13:54 | 46.37577 | 21.76318 | 38068 ft | 410 kts | 331° |
| 2026-04-26 13:55 | 46.44501 | 21.71568 | 38075 ft | 410 kts | 331° |
| 2026-04-26 13:56 | 46.53089 | 21.65656 | 38085 ft | 411 kts | 331° |
| 2026-04-26 13:56 | 46.58264 | 21.62083 | 38092 ft | 411 kts | 331° |
| 2026-04-26 13:57 | 46.63439 | 21.58503 | 38086 ft | 410 kts | 331° |
| 2026-04-26 13:57 | 46.68585 | 21.54935 | 38088 ft | 410 kts | 331° |
| 2026-04-26 13:58 | 46.73744 | 21.51351 | 38088 ft | 410 kts | 331° |
| 2026-04-26 13:58 | 46.78896 | 21.47764 | 38087 ft | 410 kts | 331° |
| 2026-04-26 13:59 | 46.84068 | 21.44155 | 38090 ft | 410 kts | 331° |
| 2026-04-26 13:59 | 46.89216 | 21.40555 | 38099 ft | 410 kts | 331° |
| 2026-04-26 14:00 | 46.99535 | 21.33318 | 38096 ft | 406 kts | 331° |
| 2026-04-26 14:01 | 47.04635 | 21.29729 | 38087 ft | 405 kts | 331° |
| 2026-04-26 14:01 | 47.09719 | 21.26143 | 38096 ft | 403 kts | 331° |
| 2026-04-26 14:02 | 47.14741 | 21.22594 | 38106 ft | 402 kts | 331° |
| 2026-04-26 14:02 | 47.19820 | 21.18996 | 38104 ft | 402 kts | 331° |
| 2026-04-26 14:03 | 47.24855 | 21.15423 | 38104 ft | 399 kts | 331° |
| 2026-04-26 14:03 | 47.29869 | 21.11856 | 38113 ft | 398 kts | 331° |
| 2026-04-26 14:04 | 47.34932 | 21.08246 | 38112 ft | 397 kts | 331° |
| 2026-04-26 14:04 | 47.39166 | 21.05223 | 38109 ft | 396 kts | 331° |
| 2026-04-26 14:05 | 47.44134 | 21.01667 | 38117 ft | 396 kts | 331° |
| 2026-04-26 14:05 | 47.49103 | 20.98105 | 38120 ft | 395 kts | 331° |
| 2026-04-26 14:06 | 47.54027 | 20.94566 | 38110 ft | 393 kts | 331° |
| 2026-04-26 14:06 | 47.58937 | 20.91032 | 38106 ft | 392 kts | 331° |
| 2026-04-26 14:07 | 47.63873 | 20.87469 | 38110 ft | 392 kts | 331° |
| 2026-04-26 14:07 | 47.68773 | 20.83925 | 38112 ft | 392 kts | 331° |
| 2026-04-26 14:08 | 47.73669 | 20.80378 | 38112 ft | 392 kts | 331° |
| 2026-04-26 14:08 | 47.78610 | 20.76790 | 38109 ft | 393 kts | 331° |
| 2026-04-26 14:09 | 47.83504 | 20.73228 | 38107 ft | 393 kts | 330° |
| 2026-04-26 14:09 | 47.88470 | 20.69607 | 38107 ft | 394 kts | 330° |
| 2026-04-26 14:10 | 47.93370 | 20.66026 | 38107 ft | 394 kts | 330° |
| 2026-04-26 14:10 | 47.98334 | 20.62390 | 38108 ft | 394 kts | 330° |
| 2026-04-26 14:11 | 48.05785 | 20.56919 | 38113 ft | 395 kts | 330° |
| 2026-04-26 14:11 | 48.10728 | 20.53279 | 38110 ft | 395 kts | 330° |
| 2026-04-26 14:12 | 48.15663 | 20.49638 | 38107 ft | 394 kts | 330° |
| 2026-04-26 14:12 | 48.20550 | 20.46026 | 38100 ft | 394 kts | 330° |
| 2026-04-26 14:13 | 48.27963 | 20.40535 | 38086 ft | 393 kts | 330° |
| 2026-04-26 14:14 | 48.32862 | 20.36869 | 38085 ft | 392 kts | 328° |
| 2026-04-26 14:14 | 48.37717 | 20.32974 | 38102 ft | 392 kts | 329° |
| 2026-04-26 14:15 | 48.42613 | 20.29135 | 38117 ft | 392 kts | 329° |
| 2026-04-26 14:15 | 48.47469 | 20.25295 | 38105 ft | 392 kts | 329° |
| 2026-04-26 14:16 | 48.52301 | 20.21453 | 38095 ft | 392 kts | 329° |
| 2026-04-26 14:16 | 48.57081 | 20.17641 | 38101 ft | 390 kts | 328° |
| 2026-04-26 14:17 | 48.61918 | 20.13776 | 38101 ft | 390 kts | 328° |
| 2026-04-26 14:17 | 48.66748 | 20.09908 | 38102 ft | 389 kts | 328° |
| 2026-04-26 14:18 | 48.71552 | 20.06052 | 38107 ft | 390 kts | 328° |
| 2026-04-26 14:18 | 48.75506 | 20.02871 | 38115 ft | 390 kts | 328° |
| 2026-04-26 14:19 | 48.80400 | 19.98928 | 38124 ft | 390 kts | 328° |
| 2026-04-26 14:19 | 48.85225 | 19.95032 | 38133 ft | 391 kts | 328° |
| 2026-04-26 14:20 | 48.90039 | 19.91136 | 38139 ft | 391 kts | 328° |
| 2026-04-26 14:20 | 48.94847 | 19.87237 | 38142 ft | 391 kts | 328° |
| 2026-04-26 14:21 | 48.99718 | 19.83277 | 38141 ft | 391 kts | 328° |
| 2026-04-26 14:21 | 49.04531 | 19.79356 | 38144 ft | 392 kts | 328° |
| 2026-04-26 14:22 | 49.09301 | 19.75462 | 38151 ft | 392 kts | 328° |
| 2026-04-26 14:22 | 49.14108 | 19.71528 | 38155 ft | 392 kts | 328° |
| 2026-04-26 14:23 | 49.18986 | 19.67527 | 38175 ft | 393 kts | 328° |
| 2026-04-26 14:23 | 49.23880 | 19.63925 | 38166 ft | 394 kts | 335° |
| 2026-04-26 14:24 | 49.29147 | 19.61398 | 38167 ft | 397 kts | 339° |
| 2026-04-26 14:24 | 49.34448 | 19.59007 | 38180 ft | 396 kts | 339° |
| 2026-04-26 14:25 | 49.39744 | 19.56616 | 38179 ft | 396 kts | 339° |
| 2026-04-26 14:25 | 49.45032 | 19.54237 | 38184 ft | 396 kts | 339° |
| 2026-04-26 14:26 | 49.50367 | 19.51835 | 38186 ft | 396 kts | 339° |
| 2026-04-26 14:26 | 49.55622 | 19.49463 | 38192 ft | 396 kts | 339° |
| 2026-04-26 14:27 | 49.60876 | 19.46885 | 38190 ft | 394 kts | 333° |
| 2026-04-26 14:27 | 49.65809 | 19.43264 | 38195 ft | 391 kts | 329° |
| 2026-04-26 14:28 | 49.70568 | 19.39529 | 38199 ft | 391 kts | 329° |
| 2026-04-26 14:28 | 49.75530 | 19.35638 | 38205 ft | 391 kts | 329° |
| 2026-04-26 14:29 | 49.80383 | 19.31810 | 38211 ft | 391 kts | 329° |
| 2026-04-26 14:29 | 49.85442 | 19.27806 | 38216 ft | 392 kts | 329° |
| 2026-04-26 14:30 | 49.90287 | 19.23963 | 38210 ft | 390 kts | 329° |
| 2026-04-26 14:30 | 49.95118 | 19.20119 | 38218 ft | 389 kts | 329° |
| 2026-04-26 14:31 | 49.99164 | 19.16891 | 38212 ft | 389 kts | 329° |
| 2026-04-26 14:31 | 50.04049 | 19.12987 | 38219 ft | 388 kts | 329° |
| 2026-04-26 14:32 | 50.08855 | 19.09137 | 38217 ft | 388 kts | 329° |
| 2026-04-26 14:32 | 50.13723 | 19.05228 | 38225 ft | 388 kts | 329° |
| 2026-04-26 14:33 | 50.18502 | 19.01383 | 38220 ft | 388 kts | 329° |
| 2026-04-26 14:33 | 50.23302 | 18.97512 | 38219 ft | 388 kts | 329° |
| 2026-04-26 14:34 | 50.28092 | 18.93640 | 38221 ft | 387 kts | 329° |
| 2026-04-26 14:34 | 50.32853 | 18.89782 | 38211 ft | 387 kts | 329° |
| 2026-04-26 14:35 | 50.37644 | 18.85892 | 38207 ft | 387 kts | 329° |
| 2026-04-26 14:35 | 50.42426 | 18.82000 | 38218 ft | 387 kts | 329° |
| 2026-04-26 14:36 | 50.47191 | 18.78112 | 38213 ft | 387 kts | 329° |
| 2026-04-26 14:36 | 50.51984 | 18.74194 | 38213 ft | 387 kts | 329° |
| 2026-04-26 14:37 | 50.56776 | 18.70267 | 38227 ft | 388 kts | 329° |
| 2026-04-26 14:37 | 50.61568 | 18.66330 | 38231 ft | 388 kts | 329° |
| 2026-04-26 14:38 | 50.66334 | 18.62406 | 38240 ft | 388 kts | 329° |
| 2026-04-26 14:38 | 50.71133 | 18.58446 | 38245 ft | 389 kts | 329° |
| 2026-04-26 14:39 | 50.75889 | 18.54512 | 38249 ft | 389 kts | 329° |
| 2026-04-26 14:39 | 50.80644 | 18.50570 | 38254 ft | 389 kts | 329° |
| 2026-04-26 14:40 | 50.85488 | 18.46545 | 38254 ft | 389 kts | 329° |
| 2026-04-26 14:40 | 50.90265 | 18.42566 | 38258 ft | 389 kts | 329° |
| 2026-04-26 14:41 | 50.95127 | 18.38507 | 38247 ft | 389 kts | 329° |
| 2026-04-26 14:41 | 50.99880 | 18.34530 | 38245 ft | 388 kts | 329° |
| 2026-04-26 14:42 | 51.04627 | 18.30547 | 38247 ft | 389 kts | 329° |
| 2026-04-26 14:42 | 51.09468 | 18.26477 | 38243 ft | 388 kts | 328° |
| 2026-04-26 14:43 | 51.14249 | 18.22447 | 38246 ft | 389 kts | 328° |
| 2026-04-26 14:43 | 51.19006 | 18.18428 | 38248 ft | 389 kts | 328° |
| 2026-04-26 14:44 | 51.23816 | 18.14355 | 38247 ft | 389 kts | 328° |
| 2026-04-26 14:44 | 51.28603 | 18.10292 | 38252 ft | 389 kts | 328° |
| 2026-04-26 14:45 | 51.33382 | 18.06226 | 38251 ft | 389 kts | 328° |
| 2026-04-26 14:45 | 51.38138 | 18.02170 | 38251 ft | 389 kts | 328° |
| 2026-04-26 14:46 | 51.42926 | 17.98077 | 38250 ft | 389 kts | 328° |
| 2026-04-26 14:46 | 51.47748 | 17.93944 | 38248 ft | 389 kts | 328° |
| 2026-04-26 14:47 | 51.52520 | 17.89845 | 38249 ft | 390 kts | 328° |
| 2026-04-26 14:47 | 51.57371 | 17.85669 | 38252 ft | 390 kts | 328° |
| 2026-04-26 14:48 | 51.62123 | 17.81567 | 38251 ft | 390 kts | 328° |
| 2026-04-26 14:48 | 51.66899 | 17.77435 | 38255 ft | 390 kts | 328° |
| 2026-04-26 14:49 | 51.71671 | 17.73296 | 38261 ft | 389 kts | 328° |
| 2026-04-26 14:49 | 51.76452 | 17.69140 | 38259 ft | 389 kts | 328° |
| 2026-04-26 14:50 | 51.81217 | 17.64986 | 38253 ft | 389 kts | 328° |
| 2026-04-26 14:50 | 51.86020 | 17.60789 | 38254 ft | 389 kts | 328° |
| 2026-04-26 14:51 | 51.90775 | 17.56625 | 38245 ft | 389 kts | 328° |
| 2026-04-26 14:51 | 51.95544 | 17.52439 | 38251 ft | 388 kts | 328° |
| 2026-04-26 14:52 | 52.00298 | 17.48255 | 38249 ft | 388 kts | 328° |
| 2026-04-26 14:52 | 52.05056 | 17.44058 | 38252 ft | 388 kts | 328° |
| 2026-04-26 14:53 | 52.09776 | 17.39883 | 38249 ft | 389 kts | 328° |
| 2026-04-26 14:53 | 52.14525 | 17.35673 | 38252 ft | 389 kts | 328° |
| 2026-04-26 14:54 | 52.19277 | 17.31450 | 38262 ft | 389 kts | 328° |
| 2026-04-26 14:54 | 52.24035 | 17.27211 | 38265 ft | 389 kts | 328° |
| 2026-04-26 14:55 | 52.28758 | 17.22993 | 38265 ft | 389 kts | 328° |
| 2026-04-26 14:55 | 52.33515 | 17.18734 | 38264 ft | 389 kts | 328° |
| 2026-04-26 14:56 | 52.38267 | 17.14469 | 38265 ft | 389 kts | 328° |
| 2026-04-26 14:56 | 52.42991 | 17.10220 | 38270 ft | 389 kts | 328° |
| 2026-04-26 14:57 | 52.46967 | 17.06634 | 38271 ft | 389 kts | 328° |
| 2026-04-26 14:57 | 52.51712 | 17.02345 | 38266 ft | 389 kts | 328° |
| 2026-04-26 14:58 | 52.56426 | 16.98075 | 38267 ft | 389 kts | 327° |
| 2026-04-26 14:58 | 52.61174 | 16.93762 | 38274 ft | 389 kts | 327° |
| 2026-04-26 14:59 | 52.65920 | 16.89440 | 38269 ft | 389 kts | 327° |
| 2026-04-26 14:59 | 52.70642 | 16.85130 | 38266 ft | 389 kts | 327° |
| 2026-04-26 15:00 | 52.75380 | 16.80794 | 38269 ft | 389 kts | 327° |
| 2026-04-26 15:00 | 52.80111 | 16.76454 | 38268 ft | 389 kts | 327° |
| 2026-04-26 15:01 | 52.84745 | 16.72191 | 38269 ft | 389 kts | 327° |
| 2026-04-26 15:01 | 52.89557 | 16.67754 | 38268 ft | 389 kts | 327° |
| 2026-04-26 15:02 | 52.94255 | 16.63412 | 38267 ft | 389 kts | 327° |
| 2026-04-26 15:02 | 52.98990 | 16.59024 | 38270 ft | 389 kts | 327° |
| 2026-04-26 15:03 | 53.03713 | 16.54636 | 38274 ft | 389 kts | 327° |
| 2026-04-26 15:03 | 53.08446 | 16.50227 | 38288 ft | 389 kts | 327° |
| 2026-04-26 15:04 | 53.13177 | 16.45809 | 38276 ft | 390 kts | 327° |
| 2026-04-26 15:04 | 53.17876 | 16.41410 | 38280 ft | 390 kts | 327° |
| 2026-04-26 15:05 | 53.22607 | 16.36970 | 38285 ft | 390 kts | 327° |
| 2026-04-26 15:05 | 53.27353 | 16.32504 | 38286 ft | 391 kts | 327° |
| 2026-04-26 15:06 | 53.32090 | 16.28036 | 38289 ft | 391 kts | 327° |
| 2026-04-26 15:06 | 53.36804 | 16.23577 | 38286 ft | 391 kts | 327° |
| 2026-04-26 15:07 | 53.43922 | 16.16823 | 38296 ft | 391 kts | 327° |
| 2026-04-26 15:07 | 53.48666 | 16.12307 | 38294 ft | 392 kts | 327° |
| 2026-04-26 15:08 | 53.53364 | 16.07823 | 38301 ft | 392 kts | 327° |
| 2026-04-26 15:08 | 53.58183 | 16.03212 | 38298 ft | 392 kts | 327° |
| 2026-04-26 15:09 | 53.62929 | 15.98659 | 38301 ft | 392 kts | 327° |
| 2026-04-26 15:09 | 53.67642 | 15.94125 | 38307 ft | 392 kts | 327° |
| 2026-04-26 15:10 | 53.71616 | 15.90293 | 38300 ft | 393 kts | 327° |
| 2026-04-26 15:10 | 53.77132 | 15.84961 | 38314 ft | 393 kts | 327° |
| 2026-04-26 15:11 | 53.81902 | 15.80337 | 38301 ft | 393 kts | 327° |
| 2026-04-26 15:11 | 53.86718 | 15.75655 | 38317 ft | 393 kts | 327° |
| 2026-04-26 15:12 | 53.91407 | 15.71085 | 38313 ft | 393 kts | 327° |
| 2026-04-26 15:12 | 53.96271 | 15.66331 | 38307 ft | 393 kts | 327° |
| 2026-04-26 15:13 | 54.01011 | 15.61687 | 38322 ft | 393 kts | 327° |
| 2026-04-26 15:13 | 54.05753 | 15.57028 | 38315 ft | 393 kts | 327° |
| 2026-04-26 15:14 | 54.10452 | 15.52399 | 38319 ft | 393 kts | 327° |
| 2026-04-26 15:14 | 54.14693 | 15.48211 | 38315 ft | 393 kts | 327° |
| 2026-04-26 15:15 | 54.19472 | 15.43480 | 38316 ft | 393 kts | 327° |
| 2026-04-26 15:15 | 54.24210 | 15.38781 | 38305 ft | 393 kts | 327° |
| 2026-04-26 15:16 | 54.28977 | 15.34042 | 38303 ft | 393 kts | 327° |
| 2026-04-26 15:16 | 54.33728 | 15.29308 | 38302 ft | 393 kts | 327° |
| 2026-04-26 15:17 | 54.37633 | 15.25408 | 38301 ft | 393 kts | 327° |
| 2026-04-26 15:17 | 54.43536 | 15.20981 | 38303 ft | 397 kts | 334° |
| 2026-04-26 15:18 | 54.48674 | 15.17504 | 38299 ft | 397 kts | 334° |
| 2026-04-26 15:18 | 54.53821 | 15.14000 | 38298 ft | 397 kts | 334° |
| 2026-04-26 15:19 | 54.58960 | 15.10491 | 38187 ft | 395 kts | 334° |
| 2026-04-26 15:19 | 54.61502 | 15.08753 | 37771 ft | 393 kts | 334° |
| 2026-04-26 15:19 | 54.64042 | 15.07013 | 37166 ft | 392 kts | 334° |
| 2026-04-26 15:20 | 54.66576 | 15.05273 | 36505 ft | 392 kts | 334° |
| 2026-04-26 15:20 | 54.69106 | 15.03534 | 35841 ft | 392 kts | 334° |
| 2026-04-26 15:20 | 54.71643 | 15.01788 | 35202 ft | 391 kts | 334° |
| 2026-04-26 15:20 | 54.74177 | 15.00043 | 34566 ft | 391 kts | 334° |
| 2026-04-26 15:21 | 54.76706 | 14.98299 | 33876 ft | 391 kts | 334° |
| 2026-04-26 15:21 | 54.79268 | 14.96528 | 33084 ft | 391 kts | 334° |
| 2026-04-26 15:21 | 54.81799 | 14.94775 | 32286 ft | 392 kts | 334° |
| 2026-04-26 15:21 | 54.84329 | 14.92978 | 31506 ft | 393 kts | 333° |
| 2026-04-26 15:22 | 54.86836 | 14.91071 | 30725 ft | 394 kts | 332° |
| 2026-04-26 15:22 | 54.89335 | 14.89132 | 30053 ft | 392 kts | 332° |
| 2026-04-26 15:22 | 54.91809 | 14.87216 | 29433 ft | 387 kts | 332° |
| 2026-04-26 15:22 | 54.94235 | 14.85346 | 28823 ft | 383 kts | 332° |
| 2026-04-26 15:23 | 54.96671 | 14.83475 | 28193 ft | 379 kts | 332° |
| 2026-04-26 15:23 | 54.99072 | 14.81633 | 27598 ft | 375 kts | 333° |
| 2026-04-26 15:23 | 55.01460 | 14.79800 | 27006 ft | 372 kts | 333° |
| 2026-04-26 15:23 | 55.03785 | 14.77888 | 26426 ft | 366 kts | 327° |
| 2026-04-26 15:24 | 55.05834 | 14.75307 | 25843 ft | 360 kts | 316° |
| 2026-04-26 15:24 | 55.07507 | 14.72085 | 25278 ft | 357 kts | 306° |
| 2026-04-26 15:24 | 55.08770 | 14.68373 | 24705 ft | 355 kts | 298° |
| 2026-04-26 15:24 | 55.09866 | 14.64598 | 24163 ft | 353 kts | 299° |
| 2026-04-26 15:25 | 55.10987 | 14.60783 | 23577 ft | 350 kts | 299° |
| 2026-04-26 15:25 | 55.11739 | 14.58230 | 23154 ft | 348 kts | 299° |
| 2026-04-26 15:25 | 55.13195 | 14.53271 | 22362 ft | 345 kts | 299° |
| 2026-04-26 15:25 | 55.14295 | 14.49511 | 21752 ft | 342 kts | 299° |
| 2026-04-26 15:26 | 55.15364 | 14.45848 | 21173 ft | 340 kts | 299° |
| 2026-04-26 15:26 | 55.16445 | 14.42136 | 20599 ft | 337 kts | 300° |
| 2026-04-26 15:26 | 55.17494 | 14.38528 | 20039 ft | 335 kts | 300° |
| 2026-04-26 15:26 | 55.18546 | 14.34902 | 19485 ft | 333 kts | 300° |
| 2026-04-26 15:27 | 55.19592 | 14.31293 | 18945 ft | 331 kts | 300° |
| 2026-04-26 15:27 | 55.20657 | 14.27613 | 18368 ft | 329 kts | 300° |
| 2026-04-26 15:27 | 55.21689 | 14.24042 | 17754 ft | 328 kts | 300° |
| 2026-04-26 15:27 | 55.22719 | 14.20474 | 17161 ft | 326 kts | 300° |
| 2026-04-26 15:28 | 55.23737 | 14.16941 | 16599 ft | 324 kts | 300° |
| 2026-04-26 15:28 | 55.24749 | 14.13423 | 16037 ft | 322 kts | 300° |
| 2026-04-26 15:28 | 55.25755 | 14.09920 | 15491 ft | 321 kts | 300° |
| 2026-04-26 15:28 | 55.26758 | 14.06424 | 14953 ft | 320 kts | 300° |
| 2026-04-26 15:29 | 55.27742 | 14.02990 | 14441 ft | 318 kts | 300° |
| 2026-04-26 15:29 | 55.28746 | 13.99479 | 13901 ft | 317 kts | 300° |
| 2026-04-26 15:29 | 55.30712 | 13.92596 | 12790 ft | 313 kts | 299° |
| 2026-04-26 15:30 | 55.32644 | 13.85808 | 12293 ft | 312 kts | 299° |
| 2026-04-26 15:30 | 55.33615 | 13.82392 | 12279 ft | 312 kts | 299° |
| 2026-04-26 15:30 | 55.34584 | 13.78976 | 12278 ft | 312 kts | 299° |
| 2026-04-26 15:31 | 55.35569 | 13.75497 | 12276 ft | 312 kts | 299° |
| 2026-04-26 15:31 | 55.37504 | 13.68650 | 12275 ft | 313 kts | 299° |
| 2026-04-26 15:31 | 55.38472 | 13.65220 | 12273 ft | 313 kts | 299° |
| 2026-04-26 15:32 | 55.39762 | 13.60637 | 12272 ft | 313 kts | 299° |
| 2026-04-26 15:32 | 55.41282 | 13.54846 | 12269 ft | 314 kts | 292° |
| 2026-04-26 15:32 | 55.41934 | 13.51152 | 12269 ft | 316 kts | 290° |
| 2026-04-26 15:33 | 55.42569 | 13.47451 | 12214 ft | 314 kts | 290° |
| 2026-04-26 15:33 | 55.43205 | 13.43785 | 11910 ft | 313 kts | 290° |
| 2026-04-26 15:33 | 55.43627 | 13.41350 | 11606 ft | 312 kts | 290° |
| 2026-04-26 15:33 | 55.44284 | 13.37554 | 11357 ft | 302 kts | 290° |
| 2026-04-26 15:34 | 55.44883 | 13.34069 | 11239 ft | 289 kts | 290° |
| 2026-04-26 15:34 | 55.45447 | 13.30759 | 11129 ft | 276 kts | 288° |
| 2026-04-26 15:34 | 55.45642 | 13.27438 | 10925 ft | 274 kts | 270° |
| 2026-04-26 15:34 | 55.45164 | 13.24154 | 10528 ft | 282 kts | 251° |
| 2026-04-26 15:35 | 55.44330 | 13.21029 | 10138 ft | 281 kts | 250° |
| 2026-04-26 15:35 | 55.43501 | 13.17927 | 9752 ft | 279 kts | 250° |
| 2026-04-26 15:35 | 55.42679 | 13.14838 | 9370 ft | 277 kts | 250° |
| 2026-04-26 15:35 | 55.41880 | 13.11820 | 9012 ft | 274 kts | 250° |
| 2026-04-26 15:36 | 55.41070 | 13.08752 | 8636 ft | 272 kts | 250° |
| 2026-04-26 15:36 | 55.40286 | 13.05778 | 8286 ft | 269 kts | 250° |
| 2026-04-26 15:36 | 55.39445 | 13.02831 | 7915 ft | 270 kts | 242° |
| 2026-04-26 15:36 | 55.38217 | 13.00311 | 7561 ft | 273 kts | 225° |
| 2026-04-26 15:37 | 55.36672 | 12.98352 | 7234 ft | 273 kts | 219° |
| 2026-04-26 15:37 | 55.35117 | 12.96475 | 6905 ft | 270 kts | 219° |
| 2026-04-26 15:37 | 55.33576 | 12.94598 | 6552 ft | 267 kts | 219° |
| 2026-04-26 15:37 | 55.32156 | 12.92562 | 6180 ft | 259 kts | 235° |
| 2026-04-26 15:38 | 55.31394 | 12.89880 | 5786 ft | 250 kts | 261° |
| 2026-04-26 15:38 | 55.31404 | 12.86884 | 5385 ft | 245 kts | 285° |
| 2026-04-26 15:38 | 55.32157 | 12.84231 | 4989 ft | 244 kts | 306° |
| 2026-04-26 15:38 | 55.33159 | 12.81924 | 4572 ft | 245 kts | 306° |
| 2026-04-26 15:39 | 55.34189 | 12.79539 | 4180 ft | 244 kts | 306° |
| 2026-04-26 15:39 | 55.35214 | 12.77146 | 3811 ft | 243 kts | 306° |
| 2026-04-26 15:39 | 55.36238 | 12.74780 | 3416 ft | 243 kts | 308° |
| 2026-04-26 15:39 | 55.36931 | 12.73239 | 3167 ft | 243 kts | 308° |
| 2026-04-26 15:40 | 55.38351 | 12.70131 | 2656 ft | 243 kts | 308° |
| 2026-04-26 15:40 | 55.39394 | 12.67843 | 2521 ft | 243 kts | 308° |
| 2026-04-26 15:40 | 55.40460 | 12.65492 | 2493 ft | 242 kts | 308° |
| 2026-04-26 15:40 | 55.41509 | 12.63171 | 2495 ft | 242 kts | 308° |
| 2026-04-26 15:41 | 55.42395 | 12.60659 | 2499 ft | 242 kts | 288° |
| 2026-04-26 15:41 | 55.42518 | 12.57668 | 2499 ft | 247 kts | 260° |
| 2026-04-26 15:41 | 55.41808 | 12.54979 | 2494 ft | 249 kts | 232° |
| 2026-04-26 15:41 | 55.40554 | 12.52840 | 2485 ft | 251 kts | 232° |
| 2026-04-26 15:42 | 55.39803 | 12.50147 | 2494 ft | 246 kts | 262° |
| 2026-04-26 15:42 | 55.39927 | 12.47160 | 2491 ft | 243 kts | 291° |
| 2026-04-26 15:42 | 55.40888 | 12.44743 | 2494 ft | 245 kts | 320° |
| 2026-04-26 15:42 | 55.42381 | 12.43366 | 2496 ft | 248 kts | 339° |
| 2026-04-26 15:43 | 55.44031 | 12.42469 | 2492 ft | 247 kts | 341° |
| 2026-04-26 15:43 | 55.45704 | 12.41829 | 2487 ft | 244 kts | 359° |
| 2026-04-26 15:43 | 55.48613 | 12.44104 | 2495 ft | 227 kts | 35° |
| 2026-04-26 15:44 | 55.49841 | 12.45894 | 2497 ft | 229 kts | 38° |
| 2026-04-26 15:44 | 55.52273 | 12.49638 | 1923 ft | 233 kts | 38° |
| 2026-04-26 15:44 | 55.53500 | 12.51528 | 1592 ft | 232 kts | 39° |
| 2026-04-26 15:45 | 55.55777 | 12.55043 | 992 ft | 196 kts | 38° |
| 2026-04-26 15:45 | 55.56780 | 12.56589 | 731 ft | 173 kts | 38° |
| 2026-04-26 15:46 | 55.58433 | 12.59141 | 245 ft | 144 kts | 36° |
| 2026-04-26 15:46 | 55.59056 | 12.60099 | 65 ft | 141 kts | 38° |
| 2026-04-26 15:46 | 55.59865 | 12.61343 | 23 ft | 125 kts | 39° |
| 2026-04-26 15:46 | 55.60079 | 12.61670 | 23 ft | 116 kts | 40° |
| 2026-04-26 15:47 | 55.60590 | 12.62327 | 26 ft | 27 kts | 14° |
| 2026-04-26 15:47 | 55.60820 | 12.62449 | 30 ft | 18 kts | 36° |
| 2026-04-26 15:47 | 55.60924 | 12.62605 | 24 ft | 22 kts | 40° |
| 2026-04-26 15:48 | 55.61043 | 12.62788 | 24 ft | 24 kts | 39° |
| 2026-04-26 15:48 | 55.61167 | 12.62981 | 28 ft | 24 kts | 43° |
| 2026-04-26 15:48 | 55.61295 | 12.63179 | 28 ft | 25 kts | 41° |
| 2026-04-26 15:48 | 55.61434 | 12.63394 | 29 ft | 27 kts | 40° |
| 2026-04-26 15:49 | 55.61581 | 12.63622 | 26 ft | 29 kts | 40° |
| 2026-04-26 15:49 | 55.61734 | 12.63859 | 27 ft | 29 kts | 41° |
| 2026-04-26 15:49 | 55.61836 | 12.64019 | 29 ft | 29 kts | 41° |
| 2026-04-26 15:49 | 55.62022 | 12.64196 | 21 ft | 32 kts | 25° |
| 2026-04-26 15:50 | 55.62215 | 12.64358 | 18 ft | 30 kts | 24° |
| 2026-04-26 15:50 | 55.62409 | 12.64458 | 18 ft | 28 kts | 15° |
| 2026-04-26 15:50 | 55.62519 | 12.64413 | 20 ft | 16 kts | 303° |
| 2026-04-26 15:50 | 55.62578 | 12.64254 | 23 ft | 16 kts | 303° |
| 2026-04-26 15:51 | 55.62645 | 12.64072 | 24 ft | 13 kts | 304° |
| 2026-04-26 15:51 | 55.62701 | 12.64068 | 25 ft | 10 kts | 43° |
| 2026-04-26 15:51 | 55.62728 | 12.64102 | 24 ft | 0 kts | 34° |